Time;durP1;ratioP1;P1;durP2;ratioP2;P2;SDS_P1;SDS_P2;PMS_P1;PMS_P2;Temp;Humidity;BMP_temperature;BMP_pressure;BME280_temperature;BME280_humidity;BME280_pressure;Samples;Min_cycle;Max_cycle;Signal;HPM_P1;HPM_P2
2021/11/22 00:00:45;;;;;;;29.08;17.10;;;;;;;6.22;100.00;99715.66;6300207;28;20048;-71
2021/11/22 00:03:46;;;;;;;26.80;16.17;;;;;;;6.17;100.00;99717.59;6298939;28;20059;-71
2021/11/22 00:06:46;;;;;;;29.50;17.00;;;;;;;6.15;100.00;99722.03;6282434;28;20080;-71
2021/11/22 00:09:47;;;;;;;22.58;15.23;;;;;;;6.13;100.00;99729.03;6298768;28;20047;-71
2021/11/22 00:12:48;;;;;;;27.60;16.98;;;;;;;6.12;100.00;99726.53;6298754;28;20123;-71
2021/11/22 00:15:52;;;;;;;29.50;16.10;;;;;;;6.09;100.00;99731.84;6298935;28;20541;-70
2021/11/22 00:18:54;;;;;;;25.35;15.68;;;;;;;6.07;100.00;99726.72;6298561;28;20098;-71
2021/11/22 00:21:55;;;;;;;25.75;15.00;;;;;;;6.06;100.00;99727.66;6298550;28;20127;-71
2021/11/22 00:24:56;;;;;;;27.35;15.77;;;;;;;6.10;100.00;99731.78;6298166;28;20492;-73
2021/11/22 00:27:57;;;;;;;25.50;15.25;;;;;;;6.11;100.00;99733.44;6298076;28;20041;-71
2021/11/22 00:30:58;;;;;;;26.27;15.23;;;;;;;6.13;100.00;99738.56;6313459;28;20032;-70
2021/11/22 00:33:59;;;;;;;24.27;15.90;;;;;;;6.12;100.00;99740.31;6322999;28;20517;-71
2021/11/22 00:37:01;;;;;;;24.70;15.75;;;;;;;6.14;100.00;99740.25;6323252;28;20051;-73
2021/11/22 00:40:07;;;;;;;24.95;15.68;;;;;;;6.12;100.00;99744.66;6306760;28;20056;-73
2021/11/22 00:43:09;;;;;;;27.02;15.93;;;;;;;6.10;100.00;99736.13;6323219;28;20044;-71
2021/11/22 00:46:10;;;;;;;;;;;;;;;6.11;100.00;99740.38;6323382;28;20108;-71
2021/11/22 00:49:11;;;;;;;25.65;14.25;;;;;;;6.11;100.00;99741.22;6323063;28;20360;-73
2021/11/22 00:52:11;;;;;;;24.80;15.88;;;;;;;6.11;100.00;99742.97;6323076;28;20047;-71
2021/11/22 00:55:13;;;;;;;27.17;16.52;;;;;;;6.09;100.00;99734.44;6322877;28;20042;-71
2021/11/22 00:58:14;;;;;;;23.77;15.25;;;;;;;6.05;100.00;99738.91;6303929;28;20044;-73
2021/11/22 01:01:15;;;;;;;22.10;14.35;;;;;;;6.04;100.00;99745.84;6300346;28;20047;-73
2021/11/22 01:04:17;;;;;;;22.70;15.10;;;;;;;6.05;100.00;99732.00;6321076;28;20514;-73
2021/11/22 01:07:18;;;;;;;;;;;;;;;6.02;100.00;99739.91;6323030;28;20050;-73
2021/11/22 01:10:20;;;;;;;22.30;14.43;;;;;;;6.01;100.00;99737.38;6322378;28;19920;-71
2021/11/22 01:13:21;;;;;;;21.67;14.82;;;;;;;6.02;100.00;99736.50;6305685;28;20048;-71
2021/11/22 01:16:22;;;;;;;24.30;15.57;;;;;;;6.02;100.00;99731.31;6322294;28;20495;-73
2021/11/22 01:19:25;;;;;;;24.20;15.23;;;;;;;5.98;100.00;99733.19;6339121;28;20040;-71
2021/11/22 01:22:26;;;;;;;25.83;15.82;;;;;;;5.98;100.00;99733.19;6339310;28;20094;-73
2021/11/22 01:25:27;;;;;;;22.85;15.25;;;;;;;5.96;100.00;99732.44;6288461;28;20059;-73
2021/11/22 01:28:29;;;;;;;24.27;16.07;;;;;;;5.89;100.00;99731.03;6322413;28;20138;-73
2021/11/22 01:31:30;;;;;;;27.60;15.18;;;;;;;5.88;100.00;99731.09;6322583;28;20400;-73
2021/11/22 01:34:31;;;;;;;25.02;15.20;;;;;;;5.86;100.00;99726.81;6323199;28;20044;-70
2021/11/22 01:37:32;;;;;;;25.65;14.65;;;;;;;5.84;100.00;99725.19;6323181;28;20075;-73
2021/11/22 01:40:33;;;;;;;24.20;15.43;;;;;;;5.80;100.00;99728.84;6304936;28;20050;-73
2021/11/22 01:43:34;;;;;;;24.70;15.65;;;;;;;5.74;100.00;99727.38;6304889;28;20079;-73
2021/11/22 01:46:35;;;;;;;25.08;16.58;;;;;;;5.76;100.00;99720.38;6321725;28;20040;-73
2021/11/22 01:49:35;;;;;;;30.88;16.08;;;;;;;5.65;100.00;99710.53;6321592;28;20476;-73
2021/11/22 01:52:39;;;;;;;25.60;15.52;;;;;;;5.72;100.00;99708.47;6321596;28;20044;-73
2021/11/22 01:55:39;;;;;;;27.50;15.68;;;;;;;5.65;100.00;99715.69;6321757;28;20044;-72
2021/11/22 01:58:40;;;;;;;27.20;15.35;;;;;;;5.67;100.00;99715.63;6304282;28;20054;-71
2021/11/22 02:01:43;;;;;;;26.70;16.30;;;;;;;5.73;100.00;99712.75;6322656;28;20177;-71
2021/11/22 02:04:44;;;;;;;27.83;15.23;;;;;;;5.76;100.00;99711.78;6321443;28;20075;-73
2021/11/22 02:07:45;;;;;;;25.88;16.20;;;;;;;5.76;100.00;99715.19;6304597;28;20071;-72
2021/11/22 02:10:47;;;;;;;27.30;16.10;;;;;;;5.78;100.00;99726.31;6322219;28;20036;-71
2021/11/22 02:13:48;;;;;;;23.65;14.88;;;;;;;5.77;100.00;99718.66;6322469;28;20040;-71
2021/11/22 02:16:49;;;;;;;27.63;15.82;;;;;;;5.76;100.00;99712.59;6321169;28;20052;-73
2021/11/22 02:20:04;;;;;;;26.63;15.60;;;;;;;5.83;100.00;99714.00;6321033;28;20051;-73
2021/11/22 02:23:10;;;;;;;25.30;15.57;;;;;;;5.88;100.00;99723.31;6306259;28;20106;-73
2021/11/22 02:26:11;;;;;;;28.08;16.10;;;;;;;5.86;100.00;99724.22;6295515;28;20040;-73
2021/11/22 02:29:12;;;;;;;26.63;15.57;;;;;;;5.86;100.00;99729.38;6314183;28;20043;-70
2021/11/22 02:32:14;;;;;;;27.33;16.08;;;;;;;5.85;100.00;99721.72;6303571;28;20463;-71
2021/11/22 02:35:18;;;;;;;27.20;16.13;;;;;;;5.77;100.00;99716.06;6320614;28;20050;-74
2021/11/22 02:38:22;;;;;;;24.58;15.07;;;;;;;5.78;100.00;99720.31;6321712;28;20130;-73
2021/11/22 02:41:23;;;;;;;24.30;15.35;;;;;;;5.77;100.00;99716.06;6321514;28;20407;-73
2021/11/22 02:44:23;;;;;;;24.77;15.35;;;;;;;5.70;100.00;99715.47;6303706;28;20044;-73
2021/11/22 02:47:25;;;;;;;27.17;16.70;;;;;;;5.69;100.00;99718.16;6320068;28;20130;-71
2021/11/22 02:50:25;;;;;;;27.15;15.35;;;;;;;5.61;100.00;99731.44;6320860;28;20424;-73
2021/11/22 02:53:27;;;;;;;24.08;14.90;;;;;;;5.63;100.00;99735.63;6321040;28;20036;-73
2021/11/22 02:56:30;;;;;;;25.92;16.15;;;;;;;5.68;100.00;99739.75;6321198;28;20052;-71
2021/11/22 02:59:31;;;;;;;30.42;16.92;;;;;;;5.62;100.00;99736.56;6321525;28;20544;-71
2021/11/22 03:02:32;;;;;;;28.65;16.73;;;;;;;5.61;100.00;99728.84;6321570;28;20040;-73
2021/11/22 03:05:33;;;;;;;24.90;15.80;;;;;;;5.64;100.00;99741.66;6320218;28;20068;-72
2021/11/22 03:08:36;;;;;;;26.70;15.93;;;;;;;5.59;100.00;99731.50;6303574;28;20048;-71
2021/11/22 03:11:36;;;;;;;26.38;16.02;;;;;;;5.63;100.00;99737.38;6303779;28;20063;-70
2021/11/22 03:14:39;;;;;;;26.17;15.65;;;;;;;5.64;100.00;99736.47;6303563;28;20044;-71
2021/11/22 03:17:40;;;;;;;23.70;14.88;;;;;;;5.65;100.00;99715.69;6321119;28;20131;-73
2021/11/22 03:20:41;;;;;;;24.13;14.82;;;;;;;5.63;100.00;99725.28;6319923;28;20036;-73
2021/11/22 03:23:42;;;;;;;27.10;15.57;;;;;;;5.63;100.00;99724.44;6320230;28;20372;-70
2021/11/22 03:26:43;;;;;;;25.98;15.60;;;;;;;5.54;100.00;99730.91;6321232;28;20086;-70
2021/11/22 03:29:44;;;;;;;22.08;14.48;;;;;;;5.54;100.00;99736.06;6303211;28;20145;-73
2021/11/22 03:32:45;;;;;;;25.33;15.63;;;;;;;5.55;100.00;99732.56;6303273;28;20051;-73
2021/11/22 03:35:48;;;;;;;29.20;16.13;;;;;;;5.52;100.00;99721.50;6321344;28;20458;-73
2021/11/22 03:38:49;;;;;;;24.55;14.50;;;;;;;5.49;100.00;99732.00;6321176;28;20044;-73
2021/11/22 03:41:51;;;;;;;28.23;15.27;;;;;;;5.52;100.00;99735.31;6303163;28;20472;-73
2021/11/22 03:44:53;;;;;;;25.42;16.08;;;;;;;5.54;100.00;99742.97;6321178;28;20044;-72
2021/11/22 03:47:54;;;;;;;26.77;16.13;;;;;;;5.50;100.00;99741.44;6319960;28;20044;-73
2021/11/22 03:50:54;;;;;;;27.20;16.10;;;;;;;5.37;100.00;99741.16;6302954;28;20043;-73
2021/11/22 03:53:55;;;;;;;24.90;15.35;;;;;;;5.35;100.00;99746.38;6317271;28;20076;-70
2021/11/22 03:56:56;;;;;;;25.52;14.73;;;;;;;5.36;100.00;99755.84;6299121;28;20593;-73
2021/11/22 03:59:57;;;;;;;26.35;15.30;;;;;;;5.39;100.00;99752.25;6300364;28;20040;-70
2021/11/22 04:02:58;;;;;;;22.40;14.35;;;;;;;5.37;100.00;99749.75;6332826;28;20056;-73
2021/11/22 04:05:59;;;;;;;27.02;14.88;;;;;;;5.35;100.00;99759.31;6298894;28;20127;-70
2021/11/22 04:09:00;;;;;;;23.13;14.57;;;;;;;5.31;100.00;99757.78;6299534;28;20044;-73
2021/11/22 04:12:01;;;;;;;28.42;14.15;;;;;;;5.32;100.00;99764.63;6299466;28;20044;-72
2021/11/22 04:15:02;;;;;;;29.67;15.68;;;;;;;5.35;100.00;99768.84;6298782;28;20044;-71
2021/11/22 04:18:13;;;;;;;24.50;14.38;;;;;;;5.35;100.00;99761.91;6298899;28;20067;-72
2021/11/22 04:21:15;;;;;;;25.30;14.55;;;;;;;5.33;100.00;99760.31;6283074;28;20370;-73
2021/11/22 04:24:16;;;;;;;23.30;14.73;;;;;;;5.30;100.00;99763.88;6298387;28;20057;-71
2021/11/22 04:27:17;;;;;;;24.10;15.10;;;;;;;5.30;100.00;99769.03;6298571;28;20075;-73
2021/11/22 04:30:19;;;;;;;24.80;14.98;;;;;;;5.22;100.00;99766.78;6299406;28;20496;-73
2021/11/22 04:33:20;;;;;;;27.30;15.43;;;;;;;5.21;100.00;99765.13;6298507;28;20150;-73
2021/11/22 04:36:20;;;;;;;28.65;15.68;;;;;;;5.25;100.00;99771.00;6298420;28;20285;-70
2021/11/22 04:39:21;;;;;;;27.52;15.07;;;;;;;5.28;100.00;99762.25;6299213;28;20095;-73
2021/11/22 04:42:23;;;;;;;26.02;16.00;;;;;;;5.22;100.00;99759.03;6317935;28;20036;-70
2021/11/22 04:45:29;;;;;;;27.55;15.77;;;;;;;5.27;100.00;99760.56;6323148;28;20044;-71
2021/11/22 04:48:30;;;;;;;23.02;14.48;;;;;;;5.27;100.00;99765.75;6323309;28;20041;-71
2021/11/22 04:51:31;;;;;;;22.45;14.27;;;;;;;5.26;100.00;99767.50;6311080;28;20098;-73
2021/11/22 04:54:32;;;;;;;28.25;14.93;;;;;;;5.22;100.00;99761.59;6297826;28;20055;-73
2021/11/22 04:57:32;;;;;;;25.63;14.82;;;;;;;5.22;100.00;99774.53;6297376;28;20049;-73
2021/11/22 05:00:35;;;;;;;23.55;15.30;;;;;;;5.20;100.00;99770.34;6301281;28;20046;-73
2021/11/22 05:03:35;;;;;;;23.92;15.07;;;;;;;5.20;100.00;99773.78;6321623;28;20040;-71
2021/11/22 05:06:37;;;;;;;26.20;15.70;;;;;;;5.15;100.00;99767.13;6323000;28;20050;-71
2021/11/22 05:09:37;;;;;;;25.45;14.85;;;;;;;5.15;100.00;99774.91;6321855;28;20040;-74
2021/11/22 05:12:38;;;;;;;29.63;15.48;;;;;;;5.12;100.00;99783.59;6321547;28;20557;-72
2021/11/22 05:15:40;;;;;;;26.88;15.38;;;;;;;5.06;100.00;99781.28;6304883;28;20050;-71
2021/11/22 05:18:41;;;;;;;30.25;16.38;;;;;;;5.03;100.00;99779.66;6304718;28;20032;-71
2021/11/22 05:21:42;;;;;;;24.35;15.07;;;;;;;5.04;100.00;99789.13;6281416;28;20043;-71
2021/11/22 05:24:48;;;;;;;22.55;14.55;;;;;;;4.98;100.00;99788.53;6297502;28;20056;-72
2021/11/22 05:27:49;;;;;;;28.90;14.95;;;;;;;4.96;100.00;99787.75;6296316;28;20083;-73
2021/11/22 05:30:50;;;;;;;27.83;16.08;;;;;;;4.95;100.00;99788.66;6296060;28;20044;-73
2021/11/22 05:33:52;;;;;;;28.10;15.90;;;;;;;4.95;100.00;99799.84;6296174;28;20048;-71
2021/11/22 05:36:52;;;;;;;25.88;15.75;;;;;;;4.95;100.00;99792.09;6304568;28;20051;-71
2021/11/22 05:39:55;;;;;;;26.48;15.60;;;;;;;4.99;100.00;99795.38;6321098;28;20036;-71
2021/11/22 05:42:57;;;;;;;26.70;15.02;;;;;;;4.93;100.00;99793.06;6322287;28;20111;-73
2021/11/22 05:45:58;;;;;;;27.00;15.68;;;;;;;4.94;100.00;99798.16;6304421;28;20128;-70
2021/11/22 05:48:58;;;;;;;27.95;16.60;;;;;;;4.93;100.00;99806.81;6304143;28;20404;-71
2021/11/22 05:52:00;;;;;;;34.95;18.98;;;;;;;4.90;100.00;99819.88;6320868;28;20040;-70
2021/11/22 05:55:03;;;;;;;29.35;16.58;;;;;;;4.94;100.00;99818.84;6304032;28;20040;-71
2021/11/22 05:58:07;;;;;;;36.78;20.00;;;;;;;4.95;100.00;99825.69;6320721;28;20140;-74
2021/11/22 06:01:08;;;;;;;41.10;19.95;;;;;;;4.91;100.00;99829.31;6322014;28;20047;-70
2021/11/22 06:04:09;;;;;;;34.05;19.48;;;;;;;4.97;100.00;99830.81;6315888;28;20036;-70
2021/11/22 06:07:10;;;;;;;32.75;19.10;;;;;;;4.98;100.00;99837.66;6295190;28;20029;-73
2021/11/22 06:10:11;;;;;;;31.13;18.38;;;;;;;4.99;100.00;99835.00;6278759;28;20089;-70
2021/11/22 06:13:13;;;;;;;32.10;18.58;;;;;;;5.01;100.00;99840.97;6297527;28;20502;-71
2021/11/22 06:16:13;;;;;;;30.83;17.55;;;;;;;4.93;100.00;99847.34;6316909;28;20078;-71
2021/11/22 06:19:14;;;;;;;33.83;18.60;;;;;;;4.97;100.00;99852.34;6303439;28;20122;-71
2021/11/22 06:22:15;;;;;;;32.35;17.90;;;;;;;4.93;100.00;99858.53;6320259;28;20036;-70
2021/11/22 06:25:16;;;;;;;32.83;16.65;;;;;;;5.00;100.00;99844.47;6309587;28;20055;-71
2021/11/22 06:28:19;;;;;;;30.05;17.77;;;;;;;5.02;100.00;99849.53;6299042;28;20044;-70
2021/11/22 06:31:20;;;;;;;33.10;17.50;;;;;;;4.92;100.00;99858.59;6295748;28;20082;-70
2021/11/22 06:34:21;;;;;;;32.78;17.73;;;;;;;4.97;100.00;99856.66;6294928;28;20048;-73
2021/11/22 06:37:25;;;;;;;27.50;16.63;;;;;;;5.01;100.00;99861.66;6287265;28;20040;-73
2021/11/22 06:40:26;;;;;;;29.85;16.90;;;;;;;5.04;100.00;99876.19;6314519;28;20040;-74
2021/11/22 06:43:27;;;;;;;28.85;16.45;;;;;;;5.03;100.00;99871.94;6303019;28;20135;-71
2021/11/22 06:46:27;;;;;;;27.27;17.17;;;;;;;5.08;100.00;99874.31;6261376;28;20480;-70
2021/11/22 06:49:28;;;;;;;31.48;17.30;;;;;;;5.05;100.00;99885.63;6295837;28;20045;-72
2021/11/22 06:52:29;;;;;;;31.55;17.63;;;;;;;5.07;100.00;99886.41;6301605;28;20416;-71
2021/11/22 06:55:30;;;;;;;32.92;17.73;;;;;;;5.13;100.00;99882.75;6320740;28;20450;-72
2021/11/22 06:58:31;;;;;;;30.80;18.10;;;;;;;5.12;100.00;99881.88;6319172;28;20544;-72
2021/11/22 07:01:32;;;;;;;33.67;18.35;;;;;;;5.10;100.00;99886.28;6316357;28;20029;-71
2021/11/22 07:04:32;;;;;;;28.38;17.55;;;;;;;5.04;100.00;99884.81;6320236;28;20040;-72
2021/11/22 07:07:34;;;;;;;30.80;17.15;;;;;;;5.10;100.00;99896.63;6302723;28;20040;-71
2021/11/22 07:10:36;;;;;;;34.20;18.40;;;;;;;5.19;100.00;99887.66;6319630;28;20448;-72
2021/11/22 07:13:38;;;;;;;35.58;19.20;;;;;;;5.12;100.00;99889.66;6307212;28;20044;-71
2021/11/22 07:16:39;;;;;;;34.42;19.95;;;;;;;5.20;100.00;99889.34;6296163;28;20056;-72
2021/11/22 07:19:41;;;;;;;34.10;18.70;;;;;;;5.28;100.00;99892.44;6300893;28;20123;-72
2021/11/22 07:22:42;;;;;;;51.83;28.63;;;;;;;5.23;100.00;99884.88;6299842;28;20033;-72
2021/11/22 07:25:43;;;;;;;54.80;29.52;;;;;;;5.17;100.00;99895.47;6293538;28;20059;-72
2021/11/22 07:28:45;;;;;;;36.50;20.83;;;;;;;5.40;100.00;99891.94;6324899;28;20044;-72
2021/11/22 07:31:46;;;;;;;36.70;20.50;;;;;;;5.73;100.00;99906.09;6324720;28;20051;-72
2021/11/22 07:34:46;;;;;;;33.95;19.88;;;;;;;5.77;100.00;99911.06;6324703;28;20048;-72
2021/11/22 07:37:48;;;;;;;35.67;20.13;;;;;;;5.79;100.00;99903.25;6307877;28;20055;-72
2021/11/22 07:40:51;;;;;;;36.35;20.60;;;;;;;5.65;100.00;99901.25;6324576;28;20131;-72
2021/11/22 07:43:51;;;;;;;37.80;20.70;;;;;;;5.59;100.00;99902.34;6307505;28;20498;-71
2021/11/22 07:46:53;;;;;;;33.17;19.65;;;;;;;5.72;100.00;99901.81;6324300;28;20044;-72
2021/11/22 07:49:54;;;;;;;40.38;22.90;;;;;;;5.92;100.00;99908.72;6324559;28;20067;-72
2021/11/22 07:52:56;;;;;;;45.60;25.17;;;;;;;6.10;100.00;99907.09;6324267;28;20396;-71
2021/11/22 07:55:57;;;;;;;43.70;23.27;;;;;;;6.20;100.00;99904.00;6324331;28;20051;-71
2021/11/22 07:58:58;;;;;;;34.05;19.13;;;;;;;6.30;100.00;99906.19;6324215;28;20040;-72
2021/11/22 08:02:00;;;;;;;35.33;20.08;;;;;;;6.32;100.00;99902.63;6324333;28;20063;-72
2021/11/22 08:05:04;;;;;;;31.40;18.20;;;;;;;6.45;100.00;99901.13;6300749;28;20060;-71
2021/11/22 08:08:05;;;;;;;48.53;23.13;;;;;;;6.43;100.00;99917.69;6304338;28;20050;-71
2021/11/22 08:14:12;;;;;;;40.70;19.88;;;;;;;6.64;100.00;99923.59;6299511;28;20174;-72
2021/11/22 08:17:13;;;;;;;32.22;18.58;;;;;;;6.64;100.00;99924.44;6298300;28;20056;-72
2021/11/22 08:20:16;;;;;;;30.48;17.88;;;;;;;6.77;100.00;99919.50;6298281;28;20044;-72
2021/11/22 08:23:17;;;;;;;36.72;19.40;;;;;;;6.87;100.00;99914.72;6281669;28;20055;-72
2021/11/22 08:26:18;;;;;;;33.75;19.00;;;;;;;6.80;100.00;99928.94;6299272;28;20060;-72
2021/11/22 08:29:19;;;;;;;30.33;17.93;;;;;;;6.96;100.00;99916.91;6304874;28;20040;-72
2021/11/22 08:32:21;;;;;;;27.55;16.70;;;;;;;7.07;100.00;99927.59;6319628;28;20047;-72
2021/11/22 08:35:23;;;;;;;33.67;18.27;;;;;;;7.20;100.00;99929.59;6322541;28;20085;-71
2021/11/22 08:38:24;;;;;;;26.40;16.65;;;;;;;7.40;100.00;99926.84;6316480;28;20500;-72
2021/11/22 08:41:25;;;;;;;30.13;18.48;;;;;;;7.44;100.00;99922.34;6306582;28;20052;-72
2021/11/22 08:44:26;;;;;;;31.38;17.45;;;;;;;7.52;100.00;99928.00;6297737;28;20400;-72
2021/11/22 08:47:28;;;;;;;32.45;19.38;;;;;;;7.58;100.00;99924.25;6298990;28;20489;-72
2021/11/22 08:50:29;;;;;;;29.67;17.25;;;;;;;7.77;100.00;99931.94;6298889;28;20408;-73
2021/11/22 08:53:32;;;;;;;32.28;19.13;;;;;;;7.75;100.00;99937.22;6298482;28;20036;-72
2021/11/22 08:56:32;;;;;;;31.17;18.45;;;;;;;7.85;100.00;99935.81;6297128;28;20051;-72
2021/11/22 08:59:34;;;;;;;29.35;18.08;;;;;;;8.17;100.00;99945.44;6297505;28;20040;-73
2021/11/22 09:02:35;;;;;;;32.72;19.05;;;;;;;8.23;100.00;99947.72;6298834;28;20150;-73
2021/11/22 09:05:37;;;;;;;28.02;16.00;;;;;;;8.23;100.00;99943.34;6298352;28;20049;-73
2021/11/22 09:08:38;;;;;;;29.15;18.17;;;;;;;8.44;99.35;99941.44;6302210;28;20097;-72
2021/11/22 09:11:39;;;;;;;28.48;17.77;;;;;;;8.62;98.40;99943.94;6303672;28;20044;-72
2021/11/22 09:14:40;;;;;;;27.17;17.73;;;;;;;8.59;95.47;99942.34;6304145;28;20047;-72
2021/11/22 09:17:41;;;;;;;32.58;16.35;;;;;;;8.72;96.39;99939.09;6302081;28;20044;-72
2021/11/22 09:20:42;;;;;;;25.52;15.27;;;;;;;8.76;96.13;99936.22;6306261;28;20480;-72
2021/11/22 09:23:42;;;;;;;25.95;15.73;;;;;;;8.74;94.31;99940.66;6301181;28;20055;-72
2021/11/22 09:26:43;;;;;;;27.23;15.32;;;;;;;8.48;94.48;99931.69;6296392;28;20076;-72
2021/11/22 09:29:44;;;;;;;28.23;14.68;;;;;;;8.50;94.43;99923.81;6298123;28;20051;-72
2021/11/22 09:32:46;;;;;;;27.48;15.73;;;;;;;8.45;94.92;99924.88;6296602;28;20121;-71
2021/11/22 09:35:46;;;;;;;21.60;13.40;;;;;;;8.41;93.73;99931.19;6296604;28;20059;-70
2021/11/22 09:38:48;;;;;;;22.83;13.68;;;;;;;8.65;91.99;99936.81;6297763;28;20036;-70
2021/11/22 09:41:50;;;;;;;23.23;13.25;;;;;;;8.23;95.32;99929.53;6263637;28;20064;-70
2021/11/22 09:44:51;;;;;;;21.80;12.15;;;;;;;8.19;95.59;99928.84;6296449;28;20099;-72
2021/11/22 09:48:02;;;;;;;22.70;13.68;;;;;;;8.27;95.83;99937.06;6246272;28;20051;-72
2021/11/22 09:51:07;;;;;;;25.63;14.85;;;;;;;8.26;95.28;99950.19;6296233;28;20040;-72
2021/11/22 09:54:07;;;;;;;25.38;14.88;;;;;;;8.46;94.55;99944.78;6296157;28;20048;-72
2021/11/22 09:57:08;;;;;;;22.55;12.52;;;;;;;8.50;94.56;99948.03;6297598;28;20087;-71
2021/11/22 10:00:12;;;;;;;21.50;12.73;;;;;;;8.48;93.56;99947.28;6300740;28;20123;-71
2021/11/22 10:03:25;;;;;;;21.70;12.20;;;;;;;8.42;95.03;99948.47;6309779;28;20500;-71
2021/11/22 10:06:25;;;;;;;;;;;;;;;8.71;94.76;99947.78;6321897;28;20064;-71
2021/11/22 10:09:30;;;;;;;21.35;12.95;;;;;;;8.93;90.57;99950.06;6315734;28;20399;-73
2021/11/22 10:12:32;;;;;;;23.13;12.63;;;;;;;8.98;89.76;99942.84;6298707;28;20036;-73
2021/11/22 10:15:33;;;;;;;23.67;13.25;;;;;;;9.01;88.24;99946.09;6295403;28;20044;-73
2021/11/22 10:18:39;;;;;;;21.20;12.10;;;;;;;9.38;87.30;99938.78;6295214;28;20633;-73
2021/11/22 10:21:40;;;;;;;24.30;13.05;;;;;;;9.54;86.43;99938.75;6295571;28;20040;-74
2021/11/22 10:24:41;;;;;;;19.77;12.15;;;;;;;9.66;87.41;99942.41;6295351;28;20052;-73
2021/11/22 10:27:42;;;;;;;22.40;13.20;;;;;;;9.95;86.73;99942.44;6296742;28;20105;-74
2021/11/22 10:30:50;;;;;;;23.00;12.88;;;;;;;10.06;81.32;99945.22;6278909;28;20059;-73
2021/11/22 10:33:53;;;;;;;21.05;12.48;;;;;;;10.17;83.84;99941.94;6299435;28;20040;-74
2021/11/22 10:36:59;;;;;;;26.50;13.52;;;;;;;10.14;83.59;99947.38;6303726;28;20512;-74
2021/11/22 10:40:15;;;;;;;20.52;12.45;;;;;;;9.62;85.78;99946.94;6294692;28;20617;-74
2021/11/22 10:43:18;;;;;;;21.17;11.93;;;;;;;9.54;87.48;99943.13;6295970;28;20133;-73
2021/11/22 10:46:28;;;;;;;25.58;12.80;;;;;;;9.46;88.17;99943.56;6305119;28;20124;-73
2021/11/22 10:49:40;;;;;;;18.67;11.85;;;;;;;9.48;88.11;99946.91;6314771;28;20434;-73
2021/11/22 10:52:41;;;;;;;17.52;11.05;;;;;;;9.13;89.70;99941.97;6319192;28;20484;-73
2021/11/22 10:55:46;;;;;;;20.80;12.25;;;;;;;9.34;88.82;99937.28;6320612;28;20056;-73
2021/11/22 10:59:12;;;;;;;16.65;10.90;;;;;;;9.20;89.41;99938.06;6303734;28;20048;-73
2021/11/22 11:02:13;;;;;;;20.05;11.27;;;;;;;9.23;88.66;99934.47;6325850;28;20044;-73
2021/11/22 11:05:25;;;;;;;18.05;11.25;;;;;;;9.24;88.69;99938.75;6326824;28;20399;-71
2021/11/22 11:08:30;;;;;;;20.38;11.25;;;;;;;9.24;89.60;99934.38;6326367;28;20048;-72
2021/11/22 11:11:31;;;;;;;21.25;10.43;;;;;;;9.11;89.25;99936.00;6325464;28;20062;-72
2021/11/22 11:14:35;;;;;;;18.52;11.65;;;;;;;9.18;91.56;99928.69;6325317;28;20048;-73
2021/11/22 11:17:36;;;;;;;21.05;12.43;;;;;;;9.31;90.05;99919.25;6326334;28;20415;-72
2021/11/22 11:20:48;;;;;;;18.35;11.10;;;;;;;9.25;88.82;99930.84;6313546;28;20055;-72
2021/11/22 11:23:48;;;;;;;22.48;14.60;;;;;;;9.41;90.33;99927.34;6324337;28;20052;-72
2021/11/22 11:26:49;;;;;;;20.50;11.93;;;;;;;9.40;89.07;99929.13;6325228;28;20056;-71
2021/11/22 11:29:51;;;;;;;21.33;12.35;;;;;;;9.43;89.42;99926.34;6325406;28;20403;-71
2021/11/22 11:32:53;;;;;;;24.10;12.25;;;;;;;9.30;90.11;99927.16;6325424;28;20042;-72
2021/11/22 11:36:01;;;;;;;22.30;12.70;;;;;;;9.46;89.27;99931.38;6307283;28;20047;-72
2021/11/22 11:39:14;;;;;;;18.77;10.95;;;;;;;9.61;86.09;99927.03;6323999;28;20043;-71
2021/11/22 11:42:52;;;;;;;19.05;12.02;;;;;;;9.47;87.50;99927.84;6325142;28;20040;-72
2021/11/22 11:46:01;;;;;;;18.10;10.95;;;;;;;9.46;86.72;99926.16;6324845;28;20044;-71
2021/11/22 11:49:11;;;;;;;19.23;10.60;;;;;;;9.43;86.31;99930.69;6324995;28;20043;-71
2021/11/22 11:52:22;;;;;;;16.80;10.70;;;;;;;9.29;86.24;99931.53;6323594;28;20043;-72
2021/11/22 11:55:23;;;;;;;19.52;11.52;;;;;;;9.22;88.33;99931.00;6324748;28;20126;-71
2021/11/22 11:58:27;;;;;;;16.23;10.95;;;;;;;9.22;87.84;99938.00;6324531;28;20044;-71
2021/11/22 12:01:28;;;;;;;23.02;11.82;;;;;;;9.19;87.30;99939.00;6323354;28;20043;-71
2021/11/22 12:04:50;;;;;;;22.05;12.63;;;;;;;9.26;87.54;99932.50;6324654;28;20036;-71
2021/11/22 12:07:52;;;;;;;;;;;;;;;9.25;86.42;99941.28;6325064;28;20043;-71
2021/11/22 12:10:56;;;;;;;17.73;10.48;;;;;;;9.22;87.94;99943.19;6324452;28;20292;-71
2021/11/22 12:13:57;;;;;;;16.73;10.02;;;;;;;9.13;88.41;99938.53;6323172;28;20046;-72
2021/11/22 12:16:58;;;;;;;18.10;10.80;;;;;;;9.31;88.38;99953.09;6324259;28;20047;-72
2021/11/22 12:20:08;;;;;;;19.25;10.75;;;;;;;9.27;87.08;99952.44;6322946;28;20123;-71
2021/11/22 12:23:13;;;;;;;18.67;11.07;;;;;;;9.36;86.80;99955.44;6324096;28;20039;-72
2021/11/22 12:26:27;;;;;;;18.08;10.73;;;;;;;9.40;87.20;99952.56;6322543;28;20051;-72
2021/11/22 12:29:29;;;;;;;18.08;10.80;;;;;;;9.46;86.36;99948.78;6322738;28;20040;-71
2021/11/22 12:32:33;;;;;;;17.17;11.05;;;;;;;9.38;86.45;99946.59;6323769;28;20040;-72
2021/11/22 12:35:36;;;;;;;16.52;11.13;;;;;;;9.25;86.23;99950.84;6323426;28;20105;-72
2021/11/22 12:38:40;;;;;;;16.95;10.55;;;;;;;9.37;87.44;99947.53;6323144;28;20059;-71
2021/11/22 12:41:42;;;;;;;16.60;10.57;;;;;;;9.52;85.79;99944.97;6324781;28;20064;-72
2021/11/22 12:44:56;;;;;;;19.27;11.10;;;;;;;9.68;84.66;99948.38;6324654;28;20072;-72
2021/11/22 12:47:57;;;;;;;15.50;10.90;;;;;;;9.68;83.11;99940.53;6324234;28;20040;-72
2021/11/22 12:51:00;;;;;;;17.48;11.02;;;;;;;9.26;86.32;99948.13;6323036;28;20055;-71
2021/11/22 12:54:04;;;;;;;21.42;10.85;;;;;;;9.31;87.66;99955.72;6324253;28;20044;-72
2021/11/22 12:57:17;;;;;;;19.92;12.15;;;;;;;9.31;86.76;99950.50;6308752;28;20055;-72
2021/11/22 13:00:36;;;;;;;17.23;11.25;;;;;;;9.30;85.15;99954.00;6322886;28;20048;-72
2021/11/22 13:03:51;;;;;;;20.67;11.88;;;;;;;9.34;85.23;99960.72;6323842;28;20055;-72
2021/11/22 13:06:52;;;;;;;21.17;11.15;;;;;;;9.38;85.09;99958.78;6323941;28;20093;-72
2021/11/22 13:09:52;;;;;;;18.08;10.88;;;;;;;9.31;85.89;99957.44;6305759;28;20043;-72
2021/11/22 13:12:55;;;;;;;28.17;14.65;;;;;;;9.19;86.19;99952.03;6322727;28;20506;-73
2021/11/22 13:15:58;;;;;;;;;;;;;;;9.05;86.69;99954.56;6324183;28;20125;-72
2021/11/22 13:19:21;;;;;;;21.17;12.05;;;;;;;8.85;89.05;99964.34;6323712;28;19974;-72
2021/11/22 13:22:23;;;;;;;18.92;12.63;;;;;;;8.83;89.23;99958.38;6323486;28;20036;-72
2021/11/22 13:25:25;;;;;;;23.85;13.85;;;;;;;8.86;89.60;99965.19;6323045;28;20048;-72
2021/11/22 13:28:31;;;;;;;19.92;11.80;;;;;;;8.70;91.55;99965.16;6323272;28;20039;-72
2021/11/22 13:31:38;;;;;;;22.00;13.30;;;;;;;8.72;91.87;99968.53;6323109;28;20040;-72
2021/11/22 13:34:39;;;;;;;19.00;12.68;;;;;;;8.45;93.73;99968.25;6323316;28;20118;-72
2021/11/22 13:37:40;;;;;;;20.20;11.98;;;;;;;8.54;93.21;99972.97;6316876;28;20067;-72
2021/11/22 13:41:05;;;;;;;18.20;11.20;;;;;;;8.48;94.39;99970.69;6303911;28;20048;-71
2021/11/22 13:44:09;;;;;;;18.60;12.38;;;;;;;8.49;94.77;99972.38;6298015;28;20055;-71
2021/11/22 13:47:15;;;;;;;25.10;13.80;;;;;;;8.35;96.14;99973.06;6297578;28;20703;-72
2021/11/22 13:50:16;;;;;;;27.77;14.68;;;;;;;8.40;96.63;99978.88;6296413;28;20043;-72
2021/11/22 13:53:17;;;;;;;23.88;13.32;;;;;;;8.30;96.74;99972.50;6296350;28;20423;-72
2021/11/22 13:56:26;;;;;;;21.33;12.55;;;;;;;8.32;96.38;99972.38;6297630;28;20120;-73
2021/11/22 13:59:27;;;;;;;24.90;14.88;;;;;;;8.34;98.56;99976.59;6279907;28;20067;-72
2021/11/22 14:02:30;;;;;;;25.65;14.23;;;;;;;8.25;97.27;99971.88;6297484;28;20032;-72
2021/11/22 14:05:30;;;;;;;29.08;14.73;;;;;;;8.26;96.94;99977.00;6279929;28;20036;-73
2021/11/22 14:08:32;;;;;;;28.27;15.95;;;;;;;8.33;99.01;99982.72;6279295;28;20504;-72